Alfred, New York
Current Conditions -  °F | °C
As of 7:56 AM on Thursday 23 Oct 2014 (Local Time) from KELZ Reporting Station
Overcast Overcast  
Wind Chill:   Ceiling: 700
Heat Index:   Visibility: 10mi
Dew Point:   Wind: 15mph
Humidity: 86%   Direction: 340°NNW
Pressure: 30.05"   Gusts: 25mph
Location:  42.25°N, 77.79°W
Report Text: KELZ 231156Z AUTO 34013G22KT 10SM OVC007 05/03 A3005 RMK AO2 PK WND 36027/1128 SLP190 T00500028 10061 20050 58000
Loading
Personal Weather Stations






























Interactive Weather Map
Tropical Storm Tracking
New forecast layout! Learn more

10-Day Weather Forecast

Advertisements
Track Severe Weather on mobile